createdAt,value
2019-01-03T00:02:11.657Z,0.90
2019-01-03T00:04:52.659Z,1.00
2019-01-03T00:07:28.320Z,1.20
2019-01-03T00:10:03.204Z,1.20
2019-01-03T00:12:37.084Z,1.30
2019-01-03T00:16:19.038Z,1.40
2019-01-03T00:18:58.249Z,1.40
2019-01-03T00:22:04.413Z,1.30
2019-01-03T00:24:39.637Z,1.30
2019-01-03T00:27:16.441Z,1.30
2019-01-03T00:31:59.355Z,1.30
2019-01-03T00:34:35.148Z,1.30
2019-01-03T00:37:10.025Z,1.20
2019-01-03T00:39:48.982Z,1.20
2019-01-03T00:42:34.123Z,1.10
2019-01-03T00:45:09.009Z,1.20
2019-01-03T00:47:42.979Z,1.20
2019-01-03T00:51:19.578Z,1.20
2019-01-03T00:54:57.435Z,1.20
2019-01-03T00:57:36.293Z,1.20
2019-01-03T01:00:15.630Z,1.30
2019-01-03T01:02:55.454Z,1.30
2019-01-03T01:05:30.202Z,1.20
2019-01-03T01:10:11.838Z,1.20
2019-01-03T01:12:46.974Z,1.20
2019-01-03T01:15:22.006Z,1.10
2019-01-03T01:17:58.916Z,1.00
2019-01-03T01:20:42.914Z,1.00
2019-01-03T01:23:31.923Z,1.00
2019-01-03T01:26:07.028Z,1.00
2019-01-03T01:28:40.903Z,1.00
2019-01-03T01:31:25.833Z,1.00
2019-01-03T01:34:03.764Z,1.10
2019-01-03T01:37:39.853Z,1.20
2019-01-03T01:40:19.785Z,1.30
2019-01-03T01:42:56.140Z,1.30
2019-01-03T01:47:37.774Z,1.30
2019-01-03T01:51:15.681Z,1.30
2019-01-03T01:53:51.487Z,1.10
2019-01-03T01:56:26.615Z,0.90
2019-01-03T02:01:09.823Z,0.80
2019-01-03T02:03:46.920Z,0.80
2019-01-03T02:07:23.898Z,0.80
2019-01-03T02:09:59.922Z,0.80
2019-01-03T02:12:34.666Z,0.70
2019-01-03T02:15:09.408Z,0.60
2019-01-03T02:17:43.342Z,0.50
2019-01-03T02:20:18.449Z,0.50
2019-01-03T02:22:53.301Z,0.60
2019-01-03T02:27:31.170Z,0.60
2019-01-03T02:30:08.956Z,0.60
2019-01-03T02:32:43.925Z,0.40
2019-01-03T02:36:16.861Z,0.40
2019-01-03T02:38:52.087Z,0.30
2019-01-03T02:41:27.084Z,0.20
2019-01-03T02:44:03.971Z,0.20
2019-01-03T02:48:42.647Z,0.10
2019-01-03T02:51:16.561Z,0.00
2019-01-03T02:53:55.439Z,-0.20
2019-01-03T02:56:32.401Z,-0.10
2019-01-03T03:00:05.211Z,0.00
2019-01-03T03:02:39.453Z,0.10
2019-01-03T03:05:13.329Z,0.10
2019-01-03T03:07:50.133Z,0.10
2019-01-03T03:10:27.141Z,0.10
2019-01-03T03:13:05.994Z,0.00
2019-01-03T03:15:39.852Z,0.00
2019-01-03T03:18:16.823Z,0.00
2019-01-03T03:21:50.639Z,0.00
2019-01-03T03:24:25.604Z,0.00
2019-01-03T03:27:00.682Z,0.00
2019-01-03T03:29:38.632Z,0.10
2019-01-03T03:34:20.596Z,0.10
2019-01-03T03:37:58.461Z,0.10
2019-01-03T03:40:33.444Z,0.30
2019-01-03T03:43:08.595Z,0.40
2019-01-03T03:45:43.566Z,0.30
2019-01-03T03:48:18.485Z,0.20
2019-01-03T03:50:53.593Z,0.20
2019-01-03T03:53:28.562Z,0.10
2019-01-03T03:56:03.794Z,0.10
2019-01-03T03:58:49.607Z,0.00
2019-01-03T04:01:24.845Z,-0.10
2019-01-03T04:04:01.666Z,-0.20
2019-01-03T04:08:44.155Z,-0.30
2019-01-03T04:12:16.589Z,-0.30
2019-01-03T04:15:57.365Z,-0.30
2019-01-03T04:18:32.339Z,-0.30
2019-01-03T04:21:13.258Z,-0.30
2019-01-03T04:23:48.347Z,-0.30
2019-01-03T04:28:28.024Z,-0.30
2019-01-03T04:31:03.200Z,-0.30
2019-01-03T04:33:39.570Z,-0.20
2019-01-03T04:36:16.461Z,-0.10
2019-01-03T04:38:53.537Z,-0.10
2019-01-03T04:41:35.834Z,-0.10
2019-01-03T04:44:13.590Z,-0.10
2019-01-03T04:47:47.557Z,-0.10
2019-01-03T04:50:24.336Z,-0.20
2019-01-03T04:52:59.289Z,-0.20
2019-01-03T04:55:38.112Z,-0.20
2019-01-03T04:58:13.222Z,-0.20
2019-01-03T05:01:46.045Z,-0.30
2019-01-03T05:04:24.374Z,-0.40
2019-01-03T05:07:57.606Z,-0.50
2019-01-03T05:11:34.129Z,-0.50
2019-01-03T05:15:10.155Z,-0.40
2019-01-03T05:18:43.147Z,-0.20
2019-01-03T05:21:19.983Z,-0.10
2019-01-03T05:23:58.896Z,-0.10
2019-01-03T05:26:35.318Z,0.00
2019-01-03T05:29:40.514Z,0.00
2019-01-03T05:32:16.408Z,0.00
2019-01-03T05:36:54.264Z,0.00
2019-01-03T05:41:31.773Z,0.00
2019-01-03T05:44:08.746Z,-0.10
2019-01-03T05:48:46.285Z,-0.20
2019-01-03T05:51:21.302Z,-0.10
2019-01-03T05:53:58.844Z,-0.10
2019-01-03T05:56:35.726Z,-0.10
2019-01-03T06:00:08.384Z,-0.20
2019-01-03T06:02:42.249Z,-0.20
2019-01-03T06:05:18.257Z,-0.30
2019-01-03T06:07:57.117Z,-0.40
2019-01-03T06:10:32.186Z,-0.40
2019-01-03T06:13:07.270Z,-0.50
2019-01-03T06:16:52.139Z,-0.50
2019-01-03T06:19:27.937Z,-0.50
2019-01-03T06:22:03.553Z,-0.40
2019-01-03T06:24:38.321Z,-0.30
2019-01-03T06:27:13.466Z,-0.20
2019-01-03T06:30:50.334Z,-0.10
2019-01-03T06:33:24.205Z,-0.10
2019-01-03T06:36:05.586Z,0.00
2019-01-03T06:40:47.060Z,0.00
2019-01-03T06:45:28.474Z,-0.10
2019-01-03T06:48:09.402Z,0.00
2019-01-03T06:50:45.133Z,0.10
2019-01-03T06:53:38.287Z,0.20
2019-01-03T06:56:20.251Z,0.20
2019-01-03T06:58:55.129Z,0.10
2019-01-03T07:03:37.058Z,0.10
2019-01-03T07:06:12.298Z,0.10
2019-01-03T07:08:51.094Z,0.10
2019-01-03T07:13:28.311Z,0.10
2019-01-03T07:16:09.230Z,0.10
2019-01-03T07:18:43.100Z,0.10
2019-01-03T07:21:38.002Z,0.20
2019-01-03T07:24:13.110Z,0.20
2019-01-03T07:26:47.874Z,0.20
2019-01-03T07:31:27.553Z,0.20
2019-01-03T07:34:06.673Z,0.30
2019-01-03T07:36:46.658Z,0.40
2019-01-03T07:39:20.597Z,0.40
2019-01-03T07:41:56.480Z,0.50
2019-01-03T07:44:32.859Z,0.50
2019-01-03T07:47:12.745Z,0.50
2019-01-03T07:49:50.625Z,0.60
2019-01-03T07:52:24.508Z,0.70
2019-01-03T07:54:58.403Z,0.80
2019-01-03T07:57:53.381Z,0.90
2019-01-03T08:00:34.356Z,0.90
2019-01-03T08:03:16.797Z,0.90
2019-01-03T08:05:55.816Z,0.90
2019-01-03T08:08:32.832Z,0.90
2019-01-03T08:11:07.909Z,1.00
2019-01-03T08:13:46.023Z,1.10
2019-01-03T08:16:57.300Z,1.00
2019-01-03T08:19:32.174Z,1.00
2019-01-03T08:22:07.349Z,0.90
2019-01-03T08:24:42.550Z,0.90
2019-01-03T08:27:17.721Z,0.90
2019-01-03T08:29:52.796Z,1.10
2019-01-03T08:33:28.538Z,1.30
2019-01-03T08:36:02.462Z,1.30
2019-01-03T08:38:37.071Z,1.20
2019-01-03T08:41:17.495Z,1.20
2019-01-03T08:45:57.141Z,1.30
2019-01-03T08:48:33.490Z,1.40
2019-01-03T08:51:08.535Z,1.60
2019-01-03T08:54:46.608Z,1.70
2019-01-03T08:57:21.231Z,1.70
2019-01-03T08:59:57.181Z,1.60
2019-01-03T09:02:32.366Z,1.50
2019-01-03T09:05:07.422Z,1.30
2019-01-03T09:07:42.435Z,1.20
2019-01-03T09:11:21.161Z,1.20
2019-01-03T09:14:30.462Z,1.20
2019-01-03T09:17:05.580Z,1.40
2019-01-03T09:19:43.533Z,1.30
2019-01-03T09:23:19.396Z,1.20
2019-01-03T09:25:57.346Z,1.10
2019-01-03T09:28:32.337Z,1.00
2019-01-03T09:31:07.193Z,1.00
2019-01-03T09:35:45.806Z,0.90
2019-01-03T09:38:59.638Z,1.10
2019-01-03T09:41:43.631Z,2.10
2019-01-03T09:44:21.409Z,3.00
2019-01-03T09:46:51.078Z,2.80
2019-01-03T09:49:22.084Z,2.40
2019-01-03T09:51:51.701Z,2.20
2019-01-03T09:54:22.684Z,2.70
2019-01-03T09:56:52.364Z,3.60
2019-01-03T09:59:22.020Z,4.50
2019-01-03T10:01:54.158Z,5.10
2019-01-03T10:04:23.880Z,5.10
2019-01-03T10:06:53.543Z,5.10
2019-01-03T10:09:23.303Z,5.40
2019-01-03T10:11:53.382Z,5.40
2019-01-03T10:14:23.076Z,5.00
2019-01-03T10:16:52.718Z,4.70
2019-01-03T10:19:22.388Z,4.40
2019-01-03T10:21:52.055Z,4.10
2019-01-03T10:24:22.977Z,4.50
2019-01-03T10:26:52.714Z,5.40
2019-01-03T10:29:22.413Z,6.60
2019-01-03T10:31:52.102Z,7.70
2019-01-03T10:34:21.746Z,8.30
2019-01-03T10:36:52.601Z,9.00
2019-01-03T10:39:23.621Z,8.80
2019-01-03T10:41:53.282Z,8.30
2019-01-03T10:44:22.955Z,7.40
2019-01-03T10:46:53.918Z,6.50
2019-01-03T10:49:26.007Z,6.00
2019-01-03T10:51:55.694Z,5.50
2019-01-03T10:54:25.416Z,5.20
2019-01-03T10:56:55.093Z,5.20
2019-01-03T10:59:27.109Z,4.80
2019-01-03T11:01:56.817Z,4.50
2019-01-03T11:04:28.987Z,5.10
2019-01-03T11:07:00.992Z,5.60
2019-01-03T11:09:30.834Z,5.30
2019-01-03T11:12:00.516Z,4.70
2019-01-03T11:14:30.209Z,4.20
2019-01-03T11:16:59.888Z,3.90
2019-01-03T11:19:29.556Z,3.60
2019-01-03T11:21:59.282Z,3.40
2019-01-03T11:24:28.978Z,3.40
2019-01-03T11:26:58.617Z,3.50
2019-01-03T11:29:28.334Z,4.10
2019-01-03T11:31:57.991Z,5.10
2019-01-03T11:34:27.658Z,5.20
2019-01-03T11:36:57.308Z,4.80
2019-01-03T11:39:27.045Z,4.60
2019-01-03T11:41:56.713Z,4.40
2019-01-03T11:44:26.432Z,4.00
2019-01-03T11:46:56.145Z,4.20
2019-01-03T11:49:25.830Z,4.10
2019-01-03T11:51:55.561Z,3.90
2019-01-03T11:54:25.208Z,4.00
2019-01-03T11:56:56.179Z,3.90
2019-01-03T11:59:25.853Z,3.70
2019-01-03T12:01:55.483Z,3.40
2019-01-03T12:04:25.218Z,3.10
2019-01-03T12:06:54.913Z,2.70
2019-01-03T12:09:24.597Z,2.50
2019-01-03T12:11:54.224Z,2.20
2019-01-03T12:14:23.878Z,2.10
2019-01-03T12:16:53.575Z,2.00
2019-01-03T12:19:23.217Z,2.10
2019-01-03T12:21:52.872Z,2.10
2019-01-03T12:24:22.533Z,2.10
2019-01-03T12:26:52.241Z,2.10
2019-01-03T12:29:21.868Z,2.10
2019-01-03T12:31:51.509Z,2.10
2019-01-03T12:34:21.164Z,2.10
2019-01-03T12:36:50.860Z,1.90
2019-01-03T12:39:22.983Z,1.80
2019-01-03T12:41:52.649Z,1.80
2019-01-03T12:44:22.304Z,1.80
2019-01-03T12:46:53.173Z,1.80
2019-01-03T12:49:23.975Z,1.80
2019-01-03T12:51:53.622Z,1.80
2019-01-03T12:54:23.334Z,2.00
2019-01-03T12:56:54.314Z,2.10
2019-01-03T12:59:23.950Z,2.10
2019-01-03T13:01:53.678Z,2.10
2019-01-03T13:04:23.315Z,2.00
2019-01-03T13:06:53.045Z,1.90
2019-01-03T13:09:22.745Z,1.80
2019-01-03T13:11:52.542Z,1.70
2019-01-03T13:14:22.189Z,1.60
2019-01-03T13:16:51.996Z,1.50
2019-01-03T13:19:21.612Z,1.50
2019-01-03T13:21:51.263Z,1.40
2019-01-03T13:24:20.972Z,1.30
2019-01-03T13:26:50.703Z,1.30
2019-01-03T13:29:20.353Z,1.30
2019-01-03T13:31:52.432Z,1.30
2019-01-03T13:34:22.077Z,1.30
2019-01-03T13:36:51.762Z,1.20
2019-01-03T13:39:21.395Z,1.20
2019-01-03T13:41:51.080Z,1.20
2019-01-03T13:44:20.785Z,1.20
2019-01-03T13:46:50.435Z,1.20
2019-01-03T13:49:20.154Z,1.20
2019-01-03T13:51:49.829Z,1.10
2019-01-03T13:54:23.468Z,1.10
2019-01-03T13:56:53.105Z,1.10
2019-01-03T13:59:22.737Z,1.20
2019-01-03T14:01:54.954Z,1.20
2019-01-03T14:04:24.609Z,1.20
2019-01-03T14:06:54.344Z,1.20
2019-01-03T14:09:24.010Z,1.20
2019-01-03T14:11:53.675Z,1.20
2019-01-03T14:14:25.750Z,1.20
2019-01-03T14:16:55.408Z,1.20
2019-01-03T14:19:25.025Z,1.10
2019-01-03T14:21:54.698Z,1.10
2019-01-03T14:24:24.302Z,1.10
2019-01-03T14:26:54.000Z,1.20
2019-01-03T14:29:24.866Z,1.30
2019-01-03T14:31:54.466Z,1.30
2019-01-03T14:34:24.120Z,1.20
2019-01-03T14:36:55.082Z,1.20
2019-01-03T14:39:26.023Z,1.20
2019-01-03T14:41:59.305Z,1.20
2019-01-03T14:44:29.002Z,1.20
2019-01-03T14:46:58.686Z,1.10
2019-01-03T14:49:28.299Z,1.00
2019-01-03T14:52:00.615Z,1.00
2019-01-03T14:54:30.239Z,1.00
2019-01-03T14:56:59.873Z,1.00
2019-01-03T14:59:30.763Z,1.10
2019-01-03T15:02:01.646Z,1.00
2019-01-03T15:04:31.307Z,1.00
2019-01-03T15:07:00.992Z,0.90
2019-01-03T15:09:30.611Z,0.90
2019-01-03T15:12:01.568Z,0.90
2019-01-03T15:14:31.357Z,1.00
2019-01-03T15:17:00.982Z,1.00
2019-01-03T15:19:30.626Z,1.00
2019-01-03T15:22:00.250Z,1.00
2019-01-03T15:24:29.978Z,0.90
2019-01-03T15:26:59.680Z,0.90
2019-01-03T15:29:30.578Z,0.90
2019-01-03T15:32:00.307Z,0.90
2019-01-03T15:34:29.996Z,0.90
2019-01-03T15:36:59.659Z,0.90
2019-01-03T15:39:29.573Z,0.90
2019-01-03T15:41:59.247Z,0.90
2019-01-03T15:44:28.890Z,0.90
2019-01-03T15:46:58.595Z,0.90
2019-01-03T15:49:28.386Z,0.90
2019-01-03T15:51:58.014Z,0.90
2019-01-03T15:54:28.719Z,0.90
2019-01-03T15:56:58.381Z,0.90
2019-01-03T15:59:28.029Z,0.90
2019-01-03T16:01:57.733Z,1.00
2019-01-03T16:04:27.386Z,1.00
2019-01-03T16:06:57.012Z,1.00
2019-01-03T16:09:26.805Z,1.00
2019-01-03T16:11:57.166Z,1.00
2019-01-03T16:14:27.446Z,1.10
2019-01-03T16:16:56.477Z,1.10
2019-01-03T16:19:27.325Z,1.10
2019-01-03T16:21:56.974Z,1.10
2019-01-03T16:24:27.949Z,1.20
2019-01-03T16:26:57.597Z,1.20
2019-01-03T16:29:27.266Z,1.20
2019-01-03T16:31:58.201Z,1.20
2019-01-03T16:34:27.980Z,1.20
2019-01-03T16:36:58.001Z,1.20
2019-01-03T16:39:27.648Z,1.20
2019-01-03T16:41:57.288Z,1.20
2019-01-03T16:44:28.187Z,1.20
2019-01-03T16:46:57.851Z,1.10
2019-01-03T16:49:27.561Z,1.20
2019-01-03T16:51:58.486Z,1.20
2019-01-03T16:54:28.141Z,1.20
2019-01-03T16:56:57.772Z,1.20
2019-01-03T16:59:27.407Z,1.20
2019-01-03T17:01:58.272Z,1.20
2019-01-03T17:04:29.133Z,1.20
2019-01-03T17:07:00.082Z,1.30
2019-01-03T17:09:30.945Z,1.30
2019-01-03T17:12:01.798Z,1.30
2019-01-03T17:14:32.774Z,1.30
2019-01-03T17:17:02.440Z,1.30
2019-01-03T17:19:33.518Z,1.30
2019-01-03T17:22:03.149Z,1.30
2019-01-03T17:24:32.765Z,1.30
2019-01-03T17:27:02.782Z,1.30
2019-01-03T17:29:32.410Z,1.40
2019-01-03T17:32:03.497Z,1.40
2019-01-03T17:34:33.137Z,1.40
2019-01-03T17:37:02.749Z,1.40
2019-01-03T17:39:33.672Z,1.40
2019-01-03T17:42:03.310Z,1.50
2019-01-03T17:44:35.647Z,1.50
2019-01-03T17:47:06.268Z,1.50
2019-01-03T17:49:37.405Z,1.50
2019-01-03T17:52:08.265Z,1.50
2019-01-03T17:54:40.346Z,1.50
2019-01-03T17:57:10.322Z,1.50
2019-01-03T17:59:40.031Z,1.50
2019-01-03T18:02:09.700Z,1.50
2019-01-03T18:04:39.421Z,1.50
2019-01-03T18:07:38.054Z,1.50
2019-01-03T18:10:11.470Z,1.50
2019-01-03T18:12:41.250Z,1.50
2019-01-03T18:15:11.015Z,1.50
2019-01-03T18:17:42.025Z,1.50
2019-01-03T18:20:14.502Z,1.50
2019-01-03T18:22:44.301Z,1.50
2019-01-03T18:25:15.661Z,1.50
2019-01-03T18:27:45.328Z,1.50
2019-01-03T18:30:14.961Z,1.50
2019-01-03T18:32:46.010Z,1.50
2019-01-03T18:35:15.652Z,1.50
2019-01-03T18:37:47.168Z,1.50
2019-01-03T18:40:17.656Z,1.50
2019-01-03T18:42:49.717Z,1.50
2019-01-03T18:45:22.333Z,1.50
2019-01-03T18:47:52.095Z,1.50
2019-01-03T18:50:21.742Z,1.60
2019-01-03T18:52:51.395Z,1.60
2019-01-03T18:55:23.649Z,1.60
2019-01-03T18:57:53.255Z,1.60
2019-01-03T19:00:22.873Z,1.60
2019-01-03T19:02:52.553Z,1.60
2019-01-03T19:05:22.656Z,1.60
2019-01-03T19:07:55.984Z,1.60
2019-01-03T19:10:28.379Z,1.60
2019-01-03T19:12:55.241Z,1.60
2019-01-03T19:15:24.874Z,1.60
2019-01-03T19:17:54.530Z,1.60
2019-01-03T19:20:24.190Z,1.60
2019-01-03T19:22:53.901Z,1.60
2019-01-03T19:25:24.807Z,1.60
2019-01-03T19:27:54.555Z,1.60
2019-01-03T19:30:24.160Z,1.60
2019-01-03T19:32:53.805Z,1.60
2019-01-03T19:35:23.474Z,1.60
2019-01-03T19:37:53.100Z,1.60
2019-01-03T19:40:25.228Z,1.60
2019-01-03T19:42:57.541Z,1.60
2019-01-03T19:45:28.455Z,1.60
2019-01-03T19:47:58.079Z,1.60
2019-01-03T19:50:27.765Z,1.60
2019-01-03T19:52:57.374Z,1.60
2019-01-03T19:55:27.027Z,1.60
2019-01-03T19:57:57.051Z,1.60
2019-01-03T20:00:26.679Z,1.60
2019-01-03T20:02:56.344Z,1.60
2019-01-03T20:05:25.960Z,1.60
2019-01-03T20:07:56.872Z,1.60
2019-01-03T20:10:26.530Z,1.60
2019-01-03T20:12:56.183Z,1.60
2019-01-03T20:15:25.839Z,1.60
2019-01-03T20:17:55.789Z,1.60
2019-01-03T20:20:25.463Z,1.60
2019-01-03T20:22:55.110Z,1.60
2019-01-03T20:25:24.760Z,1.60
2019-01-03T20:27:54.410Z,1.60
2019-01-03T20:30:24.025Z,1.60
2019-01-03T20:32:53.861Z,1.60
2019-01-03T20:35:23.553Z,1.60
2019-01-03T20:37:53.302Z,1.60
2019-01-03T20:40:23.625Z,1.60
2019-01-03T20:42:53.402Z,1.60
2019-01-03T20:45:23.315Z,1.60
2019-01-03T20:47:53.375Z,1.60
2019-01-03T20:50:23.758Z,1.60
2019-01-03T20:52:53.591Z,1.60
2019-01-03T20:55:25.301Z,1.60
2019-01-03T20:57:55.301Z,1.60
2019-01-03T21:00:25.593Z,1.60
2019-01-03T21:02:55.751Z,1.60
2019-01-03T21:05:25.574Z,1.60
2019-01-03T21:07:55.462Z,1.60
2019-01-03T21:10:26.268Z,1.60
2019-01-03T21:12:56.158Z,1.70
2019-01-03T21:15:25.897Z,1.70
2019-01-03T21:17:55.783Z,1.70
2019-01-03T21:20:27.009Z,1.70
2019-01-03T21:22:56.766Z,1.70
2019-01-03T21:25:26.478Z,1.60
2019-01-03T21:27:56.194Z,1.70
2019-01-03T21:30:25.891Z,1.70
2019-01-03T21:32:56.973Z,1.70
2019-01-03T21:35:26.738Z,1.70
2019-01-03T21:37:56.407Z,1.70
2019-01-03T21:40:26.413Z,1.70
2019-01-03T21:42:56.300Z,1.70
2019-01-03T21:45:26.147Z,1.70
2019-01-03T21:47:57.331Z,1.70
2019-01-03T21:50:27.791Z,1.70
2019-01-03T21:52:57.689Z,1.70
2019-01-03T21:55:27.849Z,1.70
2019-01-03T21:58:00.819Z,1.70
2019-01-03T22:02:53.770Z,1.70
2019-01-03T22:05:26.031Z,1.70
2019-01-03T22:07:55.816Z,1.70
2019-01-03T22:10:27.574Z,1.70
2019-01-03T22:12:58.585Z,1.70
2019-01-03T22:15:30.814Z,1.70
2019-01-03T22:18:00.542Z,1.70
2019-01-03T22:20:30.883Z,1.70
2019-01-03T22:23:00.564Z,1.70
2019-01-03T22:25:30.269Z,1.70
2019-01-03T22:28:00.866Z,1.70
2019-01-03T22:30:30.640Z,1.70
2019-01-03T22:33:00.473Z,1.70
2019-01-03T22:35:30.314Z,1.70
2019-01-03T22:38:00.152Z,1.70
2019-01-03T22:40:29.841Z,1.70
2019-01-03T22:43:00.742Z,1.70
2019-01-03T22:45:30.917Z,1.70
2019-01-03T22:48:00.563Z,1.70
2019-01-03T22:50:30.244Z,1.60
2019-01-03T22:52:59.849Z,1.60
2019-01-03T22:55:29.737Z,1.50
2019-01-03T22:57:59.545Z,1.40
2019-01-03T23:00:38.780Z,1.30
2019-01-03T23:03:08.651Z,1.30
2019-01-03T23:05:38.559Z,1.20
2019-01-03T23:08:08.240Z,1.10
2019-01-03T23:10:37.960Z,1.00
2019-01-03T23:13:07.604Z,0.90
2019-01-03T23:15:37.223Z,0.90
2019-01-03T23:18:12.223Z,0.90
2019-01-03T23:20:41.854Z,0.80
2019-01-03T23:23:11.514Z,0.80
2019-01-03T23:25:42.432Z,0.80
2019-01-03T23:28:12.099Z,0.80
2019-01-03T23:30:41.765Z,0.80
2019-01-03T23:33:12.713Z,0.80
2019-01-03T23:35:42.337Z,0.80
2019-01-03T23:38:12.039Z,0.80
2019-01-03T23:40:41.710Z,0.90
2019-01-03T23:43:11.391Z,0.90
2019-01-03T23:45:41.266Z,0.90
2019-01-03T23:48:10.894Z,0.90
2019-01-03T23:50:40.578Z,0.90
2019-01-03T23:53:10.253Z,0.90
2019-01-03T23:55:42.829Z,0.90
2019-01-03T23:58:12.522Z,0.80
